createdAt,value
2023-04-30T00:02:27.158Z,98.14
2023-04-30T00:05:27.712Z,99.03
2023-04-30T00:07:54.182Z,99.54
2023-04-30T00:11:20.201Z,100.00
2023-04-30T00:13:47.576Z,100.00
2023-04-30T00:16:14.015Z,100.00
2023-04-30T00:18:40.514Z,100.00
2023-04-30T00:21:07.235Z,100.00
2023-04-30T00:23:52.127Z,100.00
2023-04-30T00:26:19.288Z,100.00
2023-04-30T00:29:55.413Z,99.92
2023-04-30T00:32:23.700Z,100.00
2023-04-30T00:34:51.277Z,100.00
2023-04-30T00:37:18.846Z,99.98
2023-04-30T00:39:45.301Z,99.93
2023-04-30T00:42:13.617Z,99.91
2023-04-30T00:45:37.900Z,99.29
2023-04-30T00:48:04.841Z,99.05
2023-04-30T00:50:31.880Z,99.34
2023-04-30T00:52:59.865Z,99.36
2023-04-30T00:55:26.921Z,99.85
2023-04-30T00:57:57.211Z,99.75
2023-04-30T01:01:13.484Z,99.91
2023-04-30T01:03:42.452Z,99.37
2023-04-30T01:06:10.147Z,99.56
2023-04-30T01:08:36.751Z,98.81
2023-04-30T01:11:37.178Z,98.65
2023-04-30T01:14:29.544Z,98.39
2023-04-30T01:17:09.963Z,98.37
2023-04-30T01:20:47.119Z,98.41
2023-04-30T01:23:25.494Z,98.25
2023-04-30T01:26:47.902Z,98.85
2023-04-30T01:29:23.854Z,98.71
2023-04-30T01:31:51.262Z,99.01
2023-04-30T01:38:26.130Z,99.22
2023-04-30T01:40:59.372Z,99.44
2023-04-30T01:47:35.631Z,99.77
2023-04-30T01:50:33.177Z,100.00
2023-04-30T01:53:02.066Z,100.00
2023-04-30T01:55:41.518Z,100.00
2023-04-30T01:58:12.353Z,100.00
2023-04-30T02:00:38.782Z,100.00
2023-04-30T02:03:05.429Z,100.00
2023-04-30T02:05:32.157Z,100.00
2023-04-30T02:07:58.757Z,100.00
2023-04-30T02:10:27.142Z,100.00
2023-04-30T02:12:53.876Z,100.00
2023-04-30T02:15:20.735Z,100.00
2023-04-30T02:17:47.211Z,100.00
2023-04-30T02:20:13.795Z,100.00
2023-04-30T02:22:40.342Z,100.00
2023-04-30T02:25:07.095Z,100.00
2023-04-30T02:27:34.014Z,100.00
2023-04-30T02:30:01.019Z,100.00
2023-04-30T02:32:27.823Z,100.00
2023-04-30T02:34:54.266Z,100.00
2023-04-30T02:37:20.789Z,100.00
2023-04-30T02:39:47.896Z,100.00
2023-04-30T02:42:14.615Z,100.00
2023-04-30T02:44:41.194Z,100.00
2023-04-30T02:47:07.550Z,100.00
2023-04-30T02:49:34.214Z,100.00
2023-04-30T02:52:00.944Z,100.00
2023-04-30T02:54:27.409Z,100.00
2023-04-30T02:56:53.841Z,100.00
2023-04-30T02:59:20.250Z,100.00
2023-04-30T03:01:47.373Z,100.00
2023-04-30T03:04:13.792Z,100.00
2023-04-30T03:06:40.278Z,100.00
2023-04-30T03:09:07.090Z,100.00
2023-04-30T03:11:37.334Z,100.00
2023-04-30T03:14:04.945Z,100.00
2023-04-30T03:16:31.413Z,100.00
2023-04-30T03:18:57.997Z,100.00
2023-04-30T03:21:24.462Z,100.00
2023-04-30T03:23:50.837Z,100.00
2023-04-30T03:26:17.386Z,100.00
2023-04-30T03:28:43.787Z,100.00
2023-04-30T03:31:10.216Z,100.00
2023-04-30T03:33:36.637Z,100.00
2023-04-30T03:36:03.192Z,100.00
2023-04-30T03:38:29.578Z,100.00
2023-04-30T03:40:56.315Z,100.00
2023-04-30T03:43:22.731Z,100.00
2023-04-30T03:45:49.482Z,100.00
2023-04-30T03:48:16.018Z,100.00
2023-04-30T03:50:42.574Z,100.00
2023-04-30T03:53:09.007Z,100.00
2023-04-30T03:55:35.919Z,100.00
2023-04-30T03:58:02.552Z,100.00
2023-04-30T04:00:29.064Z,100.00
2023-04-30T04:02:58.347Z,100.00
2023-04-30T04:05:24.989Z,100.00
2023-04-30T04:07:51.456Z,100.00
2023-04-30T04:10:17.910Z,100.00
2023-04-30T04:12:44.328Z,100.00
2023-04-30T04:15:11.036Z,100.00
2023-04-30T04:17:37.458Z,100.00
2023-04-30T04:20:06.133Z,100.00
2023-04-30T04:22:32.560Z,100.00
2023-04-30T04:24:59.060Z,100.00
2023-04-30T04:27:25.474Z,100.00
2023-04-30T04:29:52.123Z,100.00
2023-04-30T04:32:18.786Z,100.00
2023-04-30T04:34:45.836Z,100.00
2023-04-30T04:37:12.290Z,100.00
2023-04-30T04:39:38.706Z,97.88
2023-04-30T04:42:05.288Z,94.88
2023-04-30T04:44:32.313Z,90.84
2023-04-30T04:46:58.752Z,89.05
2023-04-30T04:49:25.199Z,88.87
2023-04-30T04:51:51.643Z,88.99
2023-04-30T04:54:18.217Z,88.46
2023-04-30T04:56:44.617Z,88.70
2023-04-30T04:59:11.053Z,89.74
2023-04-30T05:01:37.552Z,90.49
2023-04-30T05:04:04.176Z,89.76
2023-04-30T05:06:30.841Z,89.78
2023-04-30T05:08:57.505Z,88.87
2023-04-30T05:11:23.918Z,85.95
2023-04-30T05:13:50.399Z,83.14
2023-04-30T05:16:17.253Z,77.85
2023-04-30T05:18:43.751Z,70.77
2023-04-30T05:21:10.594Z,64.69
2023-04-30T05:23:37.045Z,62.19
2023-04-30T05:26:03.812Z,61.33
2023-04-30T05:28:30.563Z,61.78
2023-04-30T05:30:57.048Z,60.93
2023-04-30T05:33:23.666Z,61.83
2023-04-30T05:35:50.051Z,61.51
2023-04-30T05:38:16.439Z,60.28
2023-04-30T05:40:43.206Z,60.54
2023-04-30T05:43:09.960Z,60.53
2023-04-30T05:45:36.452Z,60.98
2023-04-30T05:48:02.960Z,59.78
2023-04-30T05:50:29.515Z,60.38
2023-04-30T05:52:56.075Z,59.40
2023-04-30T05:55:22.535Z,58.49
2023-04-30T05:57:49.032Z,56.82
2023-04-30T06:00:16.118Z,55.99
2023-04-30T06:02:42.522Z,55.00
2023-04-30T06:05:09.156Z,55.34
2023-04-30T06:07:35.643Z,57.03
2023-04-30T06:10:03.305Z,57.98
2023-04-30T06:12:29.893Z,58.99
2023-04-30T06:14:56.302Z,58.38
2023-04-30T06:17:22.770Z,58.00
2023-04-30T06:19:49.192Z,59.03
2023-04-30T06:22:15.641Z,59.97
2023-04-30T06:24:42.089Z,59.01
2023-04-30T06:27:08.617Z,59.47
2023-04-30T06:29:36.226Z,61.26
2023-04-30T06:32:02.646Z,61.67
2023-04-30T06:34:29.285Z,61.97
2023-04-30T06:36:56.468Z,61.82
2023-04-30T06:39:23.075Z,61.04
2023-04-30T06:41:49.476Z,61.56
2023-04-30T06:44:16.496Z,59.44
2023-04-30T06:46:42.898Z,60.77
2023-04-30T06:49:09.372Z,60.49
2023-04-30T06:51:36.165Z,59.23
2023-04-30T06:54:02.625Z,58.53
2023-04-30T06:56:29.063Z,58.71
2023-04-30T06:58:55.495Z,59.51
2023-04-30T07:01:21.961Z,57.62
2023-04-30T07:03:48.545Z,58.96
2023-04-30T07:06:15.537Z,59.02
2023-04-30T07:08:43.845Z,60.20
2023-04-30T07:11:10.313Z,60.09
2023-04-30T07:13:37.338Z,57.62
2023-04-30T07:16:04.551Z,57.56
2023-04-30T07:18:31.391Z,57.87
2023-04-30T07:20:57.766Z,60.04
2023-04-30T07:23:24.173Z,59.44
2023-04-30T07:25:50.701Z,58.90
2023-04-30T07:28:17.079Z,57.76
2023-04-30T07:30:43.492Z,58.13
2023-04-30T07:33:10.216Z,56.74
2023-04-30T07:35:36.768Z,57.47
2023-04-30T07:38:04.827Z,56.45
2023-04-30T07:40:36.363Z,58.29
2023-04-30T07:43:04.655Z,55.22
2023-04-30T07:45:31.943Z,57.08
2023-04-30T07:47:58.428Z,56.94
2023-04-30T07:50:24.935Z,57.52
2023-04-30T07:52:51.330Z,56.92
2023-04-30T07:55:17.770Z,56.36
2023-04-30T07:57:44.194Z,55.81
2023-04-30T08:00:11.228Z,56.98
2023-04-30T08:02:37.833Z,60.08
2023-04-30T08:05:04.672Z,62.44
2023-04-30T08:07:31.057Z,62.97
2023-04-30T08:09:57.585Z,63.26
2023-04-30T08:12:24.023Z,64.32
2023-04-30T08:14:50.510Z,64.49
2023-04-30T08:17:17.228Z,67.80
2023-04-30T08:19:43.711Z,65.95
2023-04-30T08:22:10.209Z,66.47
2023-04-30T08:24:36.647Z,64.96
2023-04-30T08:27:03.718Z,66.28
2023-04-30T08:29:30.371Z,67.07
2023-04-30T08:32:02.538Z,67.82
2023-04-30T08:34:28.937Z,67.41
2023-04-30T08:36:55.521Z,66.28
2023-04-30T08:39:21.907Z,65.70
2023-04-30T08:41:56.007Z,67.09
2023-04-30T08:44:24.039Z,67.20
2023-04-30T08:46:55.538Z,66.48
2023-04-30T08:49:24.716Z,66.73
2023-04-30T08:51:52.058Z,65.59
2023-04-30T08:54:19.512Z,66.95
2023-04-30T08:56:46.081Z,66.06
2023-04-30T08:59:13.558Z,62.87
2023-04-30T09:01:41.678Z,64.29
2023-04-30T09:04:08.561Z,61.70
2023-04-30T09:06:35.294Z,61.30
2023-04-30T09:09:15.998Z,60.61
2023-04-30T09:11:43.055Z,61.17
2023-04-30T09:14:10.336Z,62.73
2023-04-30T09:16:54.873Z,61.76
2023-04-30T09:19:28.428Z,61.01
2023-04-30T09:21:55.708Z,59.66
2023-04-30T09:24:22.349Z,63.11
2023-04-30T09:26:49.422Z,60.61
2023-04-30T09:29:15.968Z,61.09
2023-04-30T09:31:45.033Z,60.77
2023-04-30T09:34:11.558Z,62.31
2023-04-30T09:36:37.965Z,60.98
2023-04-30T09:39:15.690Z,62.17
2023-04-30T09:41:42.966Z,62.76
2023-04-30T09:44:29.952Z,62.94
2023-04-30T09:47:00.108Z,61.75
2023-04-30T09:49:27.379Z,62.68
2023-04-30T09:51:58.628Z,62.34
2023-04-30T09:54:32.436Z,61.41
2023-04-30T09:57:01.846Z,62.01
2023-04-30T09:59:31.460Z,61.66
2023-04-30T10:02:03.356Z,62.87
2023-04-30T10:04:54.279Z,59.65
2023-04-30T10:07:22.626Z,62.42
2023-04-30T10:09:57.400Z,58.56
2023-04-30T10:12:58.209Z,62.61
2023-04-30T10:15:28.753Z,65.94
2023-04-30T10:18:03.619Z,60.51
2023-04-30T10:20:34.506Z,57.16
2023-04-30T10:23:01.420Z,62.38
2023-04-30T10:25:28.988Z,59.55
2023-04-30T10:27:55.769Z,60.00
2023-04-30T10:30:22.929Z,60.05
2023-04-30T10:32:55.512Z,59.71
2023-04-30T10:35:26.780Z,60.56
2023-04-30T10:38:15.306Z,61.50
2023-04-30T10:40:46.002Z,61.02
2023-04-30T10:43:13.042Z,58.27
2023-04-30T10:45:43.747Z,62.25
2023-04-30T10:48:10.407Z,63.25
2023-04-30T10:50:44.968Z,59.46
2023-04-30T10:53:16.036Z,59.37
2023-04-30T10:55:54.291Z,59.79
2023-04-30T10:58:47.467Z,62.66
2023-04-30T11:01:16.254Z,60.61
2023-04-30T11:04:03.655Z,61.41
2023-04-30T11:07:03.737Z,61.00
2023-04-30T11:09:44.421Z,59.72
2023-04-30T11:12:12.140Z,61.50
2023-04-30T11:14:45.839Z,57.44
2023-04-30T11:17:23.663Z,59.57
2023-04-30T11:19:52.220Z,58.09
2023-04-30T11:22:24.404Z,57.52
2023-04-30T11:24:55.426Z,54.49
2023-04-30T11:27:27.105Z,58.53
2023-04-30T11:29:55.763Z,55.36
2023-04-30T11:32:24.394Z,57.90
2023-04-30T11:34:51.393Z,55.01
2023-04-30T11:37:29.806Z,55.10
2023-04-30T11:40:00.148Z,56.24
2023-04-30T11:42:27.029Z,55.50
2023-04-30T11:44:53.522Z,56.25
2023-04-30T11:47:20.029Z,57.86
2023-04-30T11:49:46.896Z,58.12
2023-04-30T11:52:13.859Z,57.72
2023-04-30T11:54:40.254Z,55.32
2023-04-30T11:57:07.035Z,54.34
2023-04-30T11:59:42.422Z,54.33
2023-04-30T12:02:10.443Z,53.69
2023-04-30T12:04:38.863Z,51.95
2023-04-30T12:07:08.660Z,56.53
2023-04-30T12:09:52.849Z,52.04
2023-04-30T12:12:30.463Z,54.04
2023-04-30T12:14:57.612Z,55.83
2023-04-30T12:17:34.518Z,54.93
2023-04-30T12:20:01.270Z,53.65
2023-04-30T12:22:28.845Z,56.48
2023-04-30T12:24:56.582Z,58.37
2023-04-30T12:27:23.462Z,56.70
2023-04-30T12:29:51.105Z,55.46
2023-04-30T12:32:19.376Z,57.42
2023-04-30T12:34:46.683Z,56.77
2023-04-30T12:37:16.281Z,54.95
2023-04-30T12:39:43.230Z,53.76
2023-04-30T12:42:11.375Z,52.55
2023-04-30T12:44:45.247Z,53.89
2023-04-30T12:47:12.187Z,55.30
2023-04-30T12:49:39.322Z,54.36
2023-04-30T12:52:18.396Z,55.20
2023-04-30T12:54:45.471Z,53.98
2023-04-30T12:57:15.630Z,50.63
2023-04-30T13:00:00.820Z,49.35
2023-04-30T13:02:29.690Z,48.07
2023-04-30T13:04:56.982Z,47.75
2023-04-30T13:07:23.675Z,48.87
2023-04-30T13:09:57.773Z,48.02
2023-04-30T13:12:24.475Z,49.69
2023-04-30T13:14:51.084Z,48.08
2023-04-30T13:17:18.253Z,43.84
2023-04-30T13:19:44.622Z,45.29
2023-04-30T13:22:11.295Z,45.24
2023-04-30T13:24:38.140Z,45.81
2023-04-30T13:27:04.615Z,46.61
2023-04-30T13:29:31.956Z,47.22
2023-04-30T13:31:58.440Z,47.45
2023-04-30T13:34:24.945Z,49.82
2023-04-30T13:36:53.419Z,50.09
2023-04-30T13:39:20.500Z,47.76
2023-04-30T13:41:49.090Z,46.32
2023-04-30T13:44:17.015Z,46.01
2023-04-30T13:46:43.843Z,47.33
2023-04-30T13:49:10.439Z,48.02
2023-04-30T13:51:37.255Z,48.27
2023-04-30T13:54:03.779Z,47.80
2023-04-30T13:56:30.265Z,46.52
2023-04-30T13:58:56.668Z,45.54
2023-04-30T14:01:23.583Z,45.47
2023-04-30T14:03:50.398Z,47.28
2023-04-30T14:06:17.313Z,51.24
2023-04-30T14:08:43.737Z,49.66
2023-04-30T14:11:10.203Z,48.76
2023-04-30T14:13:37.341Z,50.05
2023-04-30T14:16:04.145Z,51.06
2023-04-30T14:18:32.520Z,52.06
2023-04-30T14:20:59.782Z,51.73
2023-04-30T14:23:26.492Z,50.33
2023-04-30T14:25:54.100Z,48.99
2023-04-30T14:28:21.045Z,49.20
2023-04-30T14:30:47.484Z,51.08
2023-04-30T14:33:14.711Z,48.72
2023-04-30T14:35:41.552Z,51.76
2023-04-30T14:38:10.662Z,51.53
2023-04-30T14:40:37.451Z,55.30
2023-04-30T14:43:03.940Z,52.30
2023-04-30T14:45:32.219Z,51.71
2023-04-30T14:47:58.732Z,54.89
2023-04-30T14:50:25.525Z,53.31
2023-04-30T14:52:51.970Z,50.58
2023-04-30T14:55:18.616Z,49.04
2023-04-30T14:57:45.036Z,49.72
2023-04-30T15:00:12.331Z,49.10
2023-04-30T15:02:38.925Z,51.99
2023-04-30T15:05:07.358Z,50.68
2023-04-30T15:07:34.211Z,52.22
2023-04-30T15:10:00.805Z,50.61
2023-04-30T15:12:27.842Z,49.83
2023-04-30T15:14:54.455Z,50.28
2023-04-30T15:17:22.023Z,48.38
2023-04-30T15:19:48.442Z,47.65
2023-04-30T15:22:16.255Z,46.95
2023-04-30T15:24:42.827Z,47.80
2023-04-30T15:27:09.651Z,47.93
2023-04-30T15:29:39.231Z,47.79
2023-04-30T15:32:06.240Z,48.50
2023-04-30T15:34:32.667Z,48.39
2023-04-30T15:36:59.130Z,47.10
2023-04-30T15:39:26.967Z,46.36
2023-04-30T15:41:53.813Z,49.37
2023-04-30T15:44:20.242Z,47.93
2023-04-30T15:46:46.792Z,48.66
2023-04-30T15:49:16.519Z,50.67
2023-04-30T15:51:45.563Z,49.26
2023-04-30T15:54:13.926Z,49.20
2023-04-30T15:56:41.198Z,49.57
2023-04-30T15:59:07.998Z,49.63
2023-04-30T16:01:34.689Z,50.38
2023-04-30T16:04:01.539Z,49.43
2023-04-30T16:06:29.640Z,50.55
2023-04-30T16:08:56.181Z,49.09
2023-04-30T16:11:24.002Z,53.17
2023-04-30T16:13:52.013Z,49.61
2023-04-30T16:16:18.546Z,49.56
2023-04-30T16:18:45.269Z,50.44
2023-04-30T16:21:11.727Z,49.75
2023-04-30T16:23:38.200Z,48.70
2023-04-30T16:26:04.608Z,47.15
2023-04-30T16:28:31.156Z,47.57
2023-04-30T16:30:58.247Z,46.51
2023-04-30T16:33:25.538Z,46.12
2023-04-30T16:35:52.150Z,45.63
2023-04-30T16:38:18.801Z,46.47
2023-04-30T16:41:00.692Z,46.64
2023-04-30T16:43:27.153Z,45.86
2023-04-30T16:46:30.692Z,46.55
2023-04-30T16:49:02.659Z,47.45
2023-04-30T16:51:29.350Z,45.48
2023-04-30T16:53:55.767Z,46.53
2023-04-30T16:56:22.155Z,47.99
2023-04-30T16:58:54.719Z,47.04
2023-04-30T17:01:21.277Z,49.53
2023-04-30T17:03:47.933Z,50.70
2023-04-30T17:06:15.536Z,50.79
2023-04-30T17:08:42.117Z,52.19
2023-04-30T17:11:08.562Z,54.80
2023-04-30T17:13:37.439Z,55.62
2023-04-30T17:16:05.184Z,55.03
2023-04-30T17:18:32.267Z,53.97
2023-04-30T17:20:58.686Z,53.45
2023-04-30T17:23:25.614Z,53.61
2023-04-30T17:25:52.120Z,55.02
2023-04-30T17:28:18.831Z,53.98
2023-04-30T17:31:15.202Z,54.10
2023-04-30T17:33:41.973Z,53.90
2023-04-30T17:36:09.702Z,54.35
2023-04-30T17:38:36.232Z,54.92
2023-04-30T17:41:02.736Z,54.90
2023-04-30T17:43:29.610Z,55.62
2023-04-30T17:45:57.452Z,54.16
2023-04-30T17:48:24.295Z,54.92
2023-04-30T17:50:54.473Z,55.91
2023-04-30T17:53:20.928Z,56.52
2023-04-30T17:55:47.378Z,56.96
2023-04-30T17:58:18.108Z,57.17
2023-04-30T18:00:44.749Z,56.96
2023-04-30T18:03:40.268Z,55.51
2023-04-30T18:06:07.357Z,57.21
2023-04-30T18:08:33.838Z,56.84
2023-04-30T18:11:47.141Z,57.21
2023-04-30T18:14:16.410Z,58.26
2023-04-30T18:16:43.068Z,58.30
2023-04-30T18:19:09.978Z,58.57
2023-04-30T18:21:36.814Z,58.46
2023-04-30T18:24:08.847Z,58.92
2023-04-30T18:26:35.290Z,59.42
2023-04-30T18:29:02.208Z,59.75
2023-04-30T18:31:28.731Z,59.09
2023-04-30T18:33:55.210Z,59.37
2023-04-30T18:36:21.833Z,59.54
2023-04-30T18:38:48.493Z,60.39
2023-04-30T18:41:16.148Z,60.44
2023-04-30T18:43:42.792Z,60.57
2023-04-30T18:46:28.584Z,60.64
2023-04-30T18:48:56.872Z,60.82
2023-04-30T18:51:23.344Z,61.28
2023-04-30T18:53:50.655Z,61.44
2023-04-30T18:56:17.282Z,61.94
2023-04-30T18:58:46.719Z,62.67
2023-04-30T19:01:14.177Z,63.14
2023-04-30T19:03:41.990Z,62.80
2023-04-30T19:06:17.775Z,63.04
2023-04-30T19:08:46.345Z,63.27
2023-04-30T19:11:16.194Z,64.38
2023-04-30T19:13:42.653Z,64.43
2023-04-30T19:16:09.310Z,64.69
2023-04-30T19:18:36.751Z,64.81
2023-04-30T19:21:05.290Z,65.01
2023-04-30T19:23:32.397Z,65.67
2023-04-30T19:26:00.250Z,65.35
2023-04-30T19:28:27.199Z,65.74
2023-04-30T19:31:09.365Z,66.01
2023-04-30T19:33:39.725Z,66.49
2023-04-30T19:36:06.583Z,67.42
2023-04-30T19:38:33.006Z,67.87
2023-04-30T19:41:00.907Z,68.01
2023-04-30T19:43:29.713Z,68.26
2023-04-30T19:45:57.585Z,69.03
2023-04-30T19:48:26.187Z,69.62
2023-04-30T19:51:13.601Z,69.50
2023-04-30T19:53:40.121Z,69.60
2023-04-30T19:56:08.699Z,70.01
2023-04-30T19:58:41.851Z,70.13
2023-04-30T20:01:10.000Z,70.50
2023-04-30T20:03:36.599Z,70.47
2023-04-30T20:06:04.632Z,70.73
2023-04-30T20:08:31.109Z,70.67
2023-04-30T20:10:57.600Z,70.71
2023-04-30T20:13:25.126Z,70.76
2023-04-30T20:15:54.391Z,70.66
2023-04-30T20:18:31.739Z,70.25
2023-04-30T20:20:58.528Z,70.79
2023-04-30T20:23:24.943Z,71.29
2023-04-30T20:25:51.426Z,71.25
2023-04-30T20:28:18.571Z,71.44
2023-04-30T20:30:47.373Z,71.61
2023-04-30T20:33:16.817Z,71.54
2023-04-30T20:35:47.667Z,71.64
2023-04-30T20:38:18.897Z,71.58
2023-04-30T20:40:46.398Z,72.25
2023-04-30T20:43:13.422Z,72.42
2023-04-30T20:45:42.422Z,72.81
2023-04-30T20:48:10.606Z,73.25
2023-04-30T20:50:43.080Z,73.03
2023-04-30T20:53:11.244Z,73.23
2023-04-30T20:55:38.099Z,72.87
2023-04-30T20:58:07.831Z,72.61
2023-04-30T21:00:34.585Z,72.69
2023-04-30T21:03:01.583Z,73.13
2023-04-30T21:05:30.058Z,74.08
2023-04-30T21:08:01.709Z,74.44
2023-04-30T21:10:35.198Z,75.78
2023-04-30T21:13:05.389Z,76.56
2023-04-30T21:15:34.108Z,76.96
2023-04-30T21:18:00.806Z,77.23
2023-04-30T21:20:27.477Z,77.66
2023-04-30T21:22:55.442Z,77.59
2023-04-30T21:25:22.251Z,77.45
2023-04-30T21:27:48.958Z,77.44
2023-04-30T21:30:17.116Z,77.13
2023-04-30T21:33:21.752Z,77.63
2023-04-30T21:35:48.643Z,78.52
2023-04-30T21:38:15.134Z,78.43
2023-04-30T21:40:43.194Z,77.99
2023-04-30T21:43:09.867Z,78.09
2023-04-30T21:45:36.319Z,78.14
2023-04-30T21:48:02.952Z,78.52
2023-04-30T21:50:32.517Z,78.13
2023-04-30T21:52:59.239Z,78.06
2023-04-30T21:55:27.691Z,77.89
2023-04-30T21:57:55.149Z,77.80
2023-04-30T22:00:59.255Z,78.31
2023-04-30T22:03:25.771Z,79.24
2023-04-30T22:05:54.610Z,79.27
2023-04-30T22:08:21.254Z,79.51
2023-04-30T22:10:47.864Z,79.69
2023-04-30T22:13:15.000Z,80.28
2023-04-30T22:18:13.322Z,80.96
2023-04-30T22:20:39.729Z,81.32
2023-04-30T22:23:07.594Z,81.55
2023-04-30T22:25:34.413Z,81.63
2023-04-30T22:28:00.893Z,81.79
2023-04-30T22:30:27.326Z,81.57
2023-04-30T22:32:57.127Z,81.40
2023-04-30T22:35:23.813Z,81.70
2023-04-30T22:37:55.437Z,82.08
2023-04-30T22:40:28.407Z,82.40
2023-04-30T22:42:54.926Z,82.52
2023-04-30T22:45:51.070Z,82.88
2023-04-30T22:48:18.680Z,82.65
2023-04-30T22:50:45.219Z,82.88
2023-04-30T22:53:13.298Z,83.02
2023-04-30T22:55:39.738Z,82.75
2023-04-30T22:58:06.153Z,83.10
2023-04-30T23:00:32.701Z,83.13
2023-04-30T23:02:59.296Z,83.15
2023-04-30T23:05:26.361Z,83.03
2023-04-30T23:07:53.614Z,82.95
2023-04-30T23:10:20.320Z,82.81
2023-04-30T23:12:47.040Z,82.87
2023-04-30T23:15:18.639Z,82.99
2023-04-30T23:17:45.057Z,82.96
2023-04-30T23:20:11.983Z,83.00
2023-04-30T23:22:38.646Z,83.36
2023-04-30T23:25:05.288Z,84.17
2023-04-30T23:27:34.144Z,84.83
2023-04-30T23:30:25.826Z,85.22
2023-04-30T23:32:52.383Z,85.61
2023-04-30T23:35:18.842Z,85.60
2023-04-30T23:37:45.378Z,85.61
2023-04-30T23:40:11.985Z,85.49
2023-04-30T23:42:38.402Z,85.21
2023-04-30T23:45:08.991Z,84.73
2023-04-30T23:47:38.786Z,84.97
2023-04-30T23:50:06.850Z,85.60
2023-04-30T23:52:33.381Z,85.64
2023-04-30T23:55:16.107Z,85.65
2023-04-30T23:57:43.137Z,85.89
